sensor_id;sensor_type;location;lat;lon;timestamp;P1;durP1;ratioP1;P2;durP2;ratioP2
22284;SDS011;11311;52.192;20.900;2022-11-11T00:00:43;51.80;;;27.33;;
22284;SDS011;11311;52.192;20.900;2022-11-11T00:03:30;43.50;;;28.23;;
22284;SDS011;11311;52.192;20.900;2022-11-11T00:06:18;43.95;;;29.85;;
22284;SDS011;11311;52.192;20.900;2022-11-11T00:09:05;43.10;;;28.15;;
22284;SDS011;11311;52.192;20.900;2022-11-11T00:11:52;43.25;;;28.23;;
22284;SDS011;11311;52.192;20.900;2022-11-11T00:14:40;41.20;;;27.77;;
22284;SDS011;11311;52.192;20.900;2022-11-11T00:17:28;42.00;;;26.10;;
22284;SDS011;11311;52.192;20.900;2022-11-11T00:20:33;42.92;;;25.90;;
22284;SDS011;11311;52.192;20.900;2022-11-11T00:23:37;46.75;;;25.35;;
22284;SDS011;11311;52.192;20.900;2022-11-11T00:26:43;41.70;;;26.13;;
22284;SDS011;11311;52.192;20.900;2022-11-11T00:29:30;38.83;;;26.00;;
22284;SDS011;11311;52.192;20.900;2022-11-11T00:32:17;34.85;;;25.38;;
22284;SDS011;11311;52.192;20.900;2022-11-11T00:35:14;41.88;;;26.75;;
22284;SDS011;11311;52.192;20.900;2022-11-11T00:38:18;41.88;;;25.52;;
22284;SDS011;11311;52.192;20.900;2022-11-11T00:41:24;44.70;;;26.38;;
22284;SDS011;11311;52.192;20.900;2022-11-11T00:44:12;44.60;;;27.17;;
22284;SDS011;11311;52.192;20.900;2022-11-11T00:46:59;37.50;;;26.17;;
22284;SDS011;11311;52.192;20.900;2022-11-11T00:50:04;35.50;;;24.42;;
22284;SDS011;11311;52.192;20.900;2022-11-11T00:53:12;44.42;;;26.15;;
22284;SDS011;11311;52.192;20.900;2022-11-11T00:56:02;39.17;;;25.83;;
22284;SDS011;11311;52.192;20.900;2022-11-11T00:58:50;43.85;;;24.40;;
22284;SDS011;11311;52.192;20.900;2022-11-11T01:01:37;35.95;;;24.75;;
22284;SDS011;11311;52.192;20.900;2022-11-11T01:04:25;42.15;;;25.27;;
22284;SDS011;11311;52.192;20.900;2022-11-11T01:07:12;37.88;;;25.08;;
22284;SDS011;11311;52.192;20.900;2022-11-11T01:10:02;38.35;;;24.33;;
22284;SDS011;11311;52.192;20.900;2022-11-11T01:12:52;36.90;;;21.58;;
22284;SDS011;11311;52.192;20.900;2022-11-11T01:15:58;33.97;;;23.88;;
22284;SDS011;11311;52.192;20.900;2022-11-11T01:18:46;41.30;;;22.13;;
22284;SDS011;11311;52.192;20.900;2022-11-11T01:21:33;39.67;;;24.35;;
22284;SDS011;11311;52.192;20.900;2022-11-11T01:24:20;38.80;;;25.05;;
22284;SDS011;11311;52.192;20.900;2022-11-11T01:27:09;42.13;;;24.15;;
22284;SDS011;11311;52.192;20.900;2022-11-11T01:29:56;39.22;;;24.83;;
22284;SDS011;11311;52.192;20.900;2022-11-11T01:32:43;42.33;;;23.73;;
22284;SDS011;11311;52.192;20.900;2022-11-11T01:35:30;38.60;;;22.90;;
22284;SDS011;11311;52.192;20.900;2022-11-11T01:38:18;34.05;;;22.08;;
22284;SDS011;11311;52.192;20.900;2022-11-11T01:41:06;34.08;;;22.90;;
22284;SDS011;11311;52.192;20.900;2022-11-11T01:44:16;28.13;;;21.42;;
22284;SDS011;11311;52.192;20.900;2022-11-11T01:47:06;34.88;;;22.20;;
22284;SDS011;11311;52.192;20.900;2022-11-11T01:49:54;31.30;;;22.35;;
22284;SDS011;11311;52.192;20.900;2022-11-11T01:52:42;35.97;;;21.77;;
22284;SDS011;11311;52.192;20.900;2022-11-11T01:55:30;34.50;;;21.30;;
22284;SDS011;11311;52.192;20.900;2022-11-11T01:58:17;36.88;;;22.92;;
22284;SDS011;11311;52.192;20.900;2022-11-11T02:01:06;43.97;;;23.35;;
22284;SDS011;11311;52.192;20.900;2022-11-11T02:03:54;41.38;;;21.20;;
22284;SDS011;11311;52.192;20.900;2022-11-11T02:07:01;40.25;;;21.23;;
22284;SDS011;11311;52.192;20.900;2022-11-11T02:09:50;35.55;;;22.42;;
22284;SDS011;11311;52.192;20.900;2022-11-11T02:12:39;32.50;;;21.20;;
22284;SDS011;11311;52.192;20.900;2022-11-11T02:15:43;31.35;;;20.27;;
22284;SDS011;11311;52.192;20.900;2022-11-11T02:18:32;30.65;;;22.20;;
22284;SDS011;11311;52.192;20.900;2022-11-11T02:21:23;33.28;;;21.75;;
22284;SDS011;11311;52.192;20.900;2022-11-11T02:24:16;39.72;;;22.77;;
22284;SDS011;11311;52.192;20.900;2022-11-11T02:27:05;39.33;;;20.63;;
22284;SDS011;11311;52.192;20.900;2022-11-11T02:29:55;37.95;;;21.25;;
22284;SDS011;11311;52.192;20.900;2022-11-11T02:32:44;35.92;;;22.67;;
22284;SDS011;11311;52.192;20.900;2022-11-11T02:35:34;37.70;;;22.05;;
22284;SDS011;11311;52.192;20.900;2022-11-11T02:38:22;34.05;;;22.20;;
22284;SDS011;11311;52.192;20.900;2022-11-11T02:41:11;36.85;;;22.10;;
22284;SDS011;11311;52.192;20.900;2022-11-11T02:44:15;37.78;;;22.67;;
22284;SDS011;11311;52.192;20.900;2022-11-11T02:47:03;30.83;;;22.35;;
22284;SDS011;11311;52.192;20.900;2022-11-11T02:49:51;40.97;;;23.13;;
22284;SDS011;11311;52.192;20.900;2022-11-11T02:52:38;35.33;;;23.27;;
22284;SDS011;11311;52.192;20.900;2022-11-11T02:55:26;35.42;;;21.92;;
22284;SDS011;11311;52.192;20.900;2022-11-11T02:58:15;37.15;;;21.80;;
22284;SDS011;11311;52.192;20.900;2022-11-11T03:01:03;34.97;;;21.42;;
22284;SDS011;11311;52.192;20.900;2022-11-11T03:03:50;37.83;;;22.88;;
22284;SDS011;11311;52.192;20.900;2022-11-11T03:06:38;33.65;;;22.55;;
22284;SDS011;11311;52.192;20.900;2022-11-11T03:09:26;32.92;;;21.90;;
22284;SDS011;11311;52.192;20.900;2022-11-11T03:12:13;33.05;;;22.10;;
22284;SDS011;11311;52.192;20.900;2022-11-11T03:15:02;40.00;;;23.60;;
22284;SDS011;11311;52.192;20.900;2022-11-11T03:17:50;37.67;;;22.23;;
22284;SDS011;11311;52.192;20.900;2022-11-11T03:20:37;33.42;;;21.30;;
22284;SDS011;11311;52.192;20.900;2022-11-11T03:23:41;43.60;;;22.42;;
22284;SDS011;11311;52.192;20.900;2022-11-11T03:26:29;33.55;;;22.35;;
22284;SDS011;11311;52.192;20.900;2022-11-11T03:29:16;31.70;;;22.05;;
22284;SDS011;11311;52.192;20.900;2022-11-11T03:32:05;33.42;;;21.88;;
22284;SDS011;11311;52.192;20.900;2022-11-11T03:34:53;35.50;;;21.17;;
22284;SDS011;11311;52.192;20.900;2022-11-11T03:37:40;37.30;;;21.83;;
22284;SDS011;11311;52.192;20.900;2022-11-11T03:40:45;36.83;;;22.95;;
22284;SDS011;11311;52.192;20.900;2022-11-11T03:43:33;30.92;;;21.30;;
22284;SDS011;11311;52.192;20.900;2022-11-11T03:46:21;34.83;;;20.48;;
22284;SDS011;11311;52.192;20.900;2022-11-11T03:49:09;35.80;;;21.15;;
22284;SDS011;11311;52.192;20.900;2022-11-11T03:51:57;33.00;;;18.77;;
22284;SDS011;11311;52.192;20.900;2022-11-11T03:54:44;25.70;;;20.10;;
22284;SDS011;11311;52.192;20.900;2022-11-11T03:57:32;30.13;;;19.70;;
22284;SDS011;11311;52.192;20.900;2022-11-11T04:00:19;28.85;;;19.92;;
22284;SDS011;11311;52.192;20.900;2022-11-11T04:03:09;32.55;;;19.05;;
22284;SDS011;11311;52.192;20.900;2022-11-11T04:06:16;37.08;;;19.58;;
22284;SDS011;11311;52.192;20.900;2022-11-11T04:09:21;30.00;;;19.73;;
22284;SDS011;11311;52.192;20.900;2022-11-11T04:12:25;36.95;;;20.02;;
22284;SDS011;11311;52.192;20.900;2022-11-11T04:15:13;28.63;;;19.13;;
22284;SDS011;11311;52.192;20.900;2022-11-11T04:18:18;39.28;;;20.25;;
22284;SDS011;11311;52.192;20.900;2022-11-11T04:21:28;31.98;;;19.00;;
22284;SDS011;11311;52.192;20.900;2022-11-11T04:24:30;34.13;;;18.80;;
22284;SDS011;11311;52.192;20.900;2022-11-11T04:27:34;27.67;;;18.30;;
22284;SDS011;11311;52.192;20.900;2022-11-11T04:30:22;27.58;;;17.80;;
22284;SDS011;11311;52.192;20.900;2022-11-11T04:33:08;29.50;;;19.52;;
22284;SDS011;11311;52.192;20.900;2022-11-11T04:35:55;29.80;;;17.50;;
22284;SDS011;11311;52.192;20.900;2022-11-11T04:38:44;28.80;;;19.23;;
22284;SDS011;11311;52.192;20.900;2022-11-11T04:41:49;27.05;;;17.30;;
22284;SDS011;11311;52.192;20.900;2022-11-11T04:44:52;28.80;;;16.55;;
22284;SDS011;11311;52.192;20.900;2022-11-11T04:47:57;31.08;;;18.10;;
22284;SDS011;11311;52.192;20.900;2022-11-11T04:50:45;32.67;;;19.45;;
22284;SDS011;11311;52.192;20.900;2022-11-11T04:53:32;29.90;;;18.00;;
22284;SDS011;11311;52.192;20.900;2022-11-11T04:56:21;28.85;;;17.67;;
22284;SDS011;11311;52.192;20.900;2022-11-11T04:59:25;27.92;;;16.02;;
22284;SDS011;11311;52.192;20.900;2022-11-11T05:02:12;32.83;;;17.92;;
22284;SDS011;11311;52.192;20.900;2022-11-11T05:05:31;25.25;;;16.20;;
22284;SDS011;11311;52.192;20.900;2022-11-11T05:08:41;28.42;;;16.10;;
22284;SDS011;11311;52.192;20.900;2022-11-11T05:11:45;27.35;;;16.02;;
22284;SDS011;11311;52.192;20.900;2022-11-11T05:14:32;25.42;;;17.23;;
22284;SDS011;11311;52.192;20.900;2022-11-11T05:17:37;26.63;;;15.63;;
22284;SDS011;11311;52.192;20.900;2022-11-11T05:20:41;39.58;;;17.40;;
22284;SDS011;11311;52.192;20.900;2022-11-11T05:23:47;30.67;;;17.73;;
22284;SDS011;11311;52.192;20.900;2022-11-11T05:26:53;34.63;;;16.17;;
22284;SDS011;11311;52.192;20.900;2022-11-11T05:29:40;28.48;;;16.90;;
22284;SDS011;11311;52.192;20.900;2022-11-11T05:32:28;21.83;;;14.27;;
22284;SDS011;11311;52.192;20.900;2022-11-11T05:35:16;24.98;;;15.70;;
22284;SDS011;11311;52.192;20.900;2022-11-11T05:38:03;25.17;;;14.25;;
22284;SDS011;11311;52.192;20.900;2022-11-11T05:41:08;23.70;;;15.20;;
22284;SDS011;11311;52.192;20.900;2022-11-11T05:44:00;31.35;;;15.38;;
22284;SDS011;11311;52.192;20.900;2022-11-11T05:46:48;30.93;;;14.00;;
22284;SDS011;11311;52.192;20.900;2022-11-11T05:49:35;26.63;;;15.55;;
22284;SDS011;11311;52.192;20.900;2022-11-11T05:52:23;31.13;;;15.32;;
22284;SDS011;11311;52.192;20.900;2022-11-11T05:55:11;29.58;;;14.68;;
22284;SDS011;11311;52.192;20.900;2022-11-11T05:57:59;28.38;;;14.82;;
22284;SDS011;11311;52.192;20.900;2022-11-11T06:00:47;31.27;;;14.25;;
22284;SDS011;11311;52.192;20.900;2022-11-11T06:03:35;31.75;;;14.20;;
22284;SDS011;11311;52.192;20.900;2022-11-11T06:06:22;26.98;;;15.48;;
22284;SDS011;11311;52.192;20.900;2022-11-11T06:09:10;31.55;;;14.40;;
22284;SDS011;11311;52.192;20.900;2022-11-11T06:11:58;32.47;;;15.60;;
22284;SDS011;11311;52.192;20.900;2022-11-11T06:14:46;25.77;;;13.90;;
22284;SDS011;11311;52.192;20.900;2022-11-11T06:17:35;25.40;;;13.98;;
22284;SDS011;11311;52.192;20.900;2022-11-11T06:20:22;28.67;;;14.25;;
22284;SDS011;11311;52.192;20.900;2022-11-11T06:23:10;26.58;;;15.60;;
22284;SDS011;11311;52.192;20.900;2022-11-11T06:25:58;26.20;;;13.77;;
22284;SDS011;11311;52.192;20.900;2022-11-11T06:29:01;24.63;;;14.02;;
22284;SDS011;11311;52.192;20.900;2022-11-11T06:31:49;24.33;;;14.95;;
22284;SDS011;11311;52.192;20.900;2022-11-11T06:34:38;25.10;;;13.95;;
22284;SDS011;11311;52.192;20.900;2022-11-11T06:37:27;24.85;;;14.77;;
22284;SDS011;11311;52.192;20.900;2022-11-11T06:40:14;25.10;;;14.23;;
22284;SDS011;11311;52.192;20.900;2022-11-11T06:43:06;25.23;;;13.85;;
22284;SDS011;11311;52.192;20.900;2022-11-11T06:45:54;30.67;;;14.73;;
22284;SDS011;11311;52.192;20.900;2022-11-11T06:48:41;26.20;;;13.15;;
22284;SDS011;11311;52.192;20.900;2022-11-11T06:51:30;26.58;;;13.50;;
22284;SDS011;11311;52.192;20.900;2022-11-11T06:54:17;28.55;;;14.05;;
22284;SDS011;11311;52.192;20.900;2022-11-11T06:57:05;24.35;;;14.35;;
22284;SDS011;11311;52.192;20.900;2022-11-11T06:59:53;31.77;;;14.30;;
22284;SDS011;11311;52.192;20.900;2022-11-11T07:02:41;27.75;;;13.73;;
22284;SDS011;11311;52.192;20.900;2022-11-11T07:05:28;30.95;;;15.10;;
22284;SDS011;11311;52.192;20.900;2022-11-11T07:08:17;29.00;;;14.45;;
22284;SDS011;11311;52.192;20.900;2022-11-11T07:11:04;15.70;;;11.70;;
22284;SDS011;11311;52.192;20.900;2022-11-11T07:14:03;25.25;;;14.32;;
22284;SDS011;11311;52.192;20.900;2022-11-11T07:16:50;22.73;;;13.30;;
22284;SDS011;11311;52.192;20.900;2022-11-11T07:19:38;25.33;;;13.07;;
22284;SDS011;11311;52.192;20.900;2022-11-11T07:22:25;24.75;;;13.25;;
22284;SDS011;11311;52.192;20.900;2022-11-11T07:25:14;26.83;;;13.93;;
22284;SDS011;11311;52.192;20.900;2022-11-11T07:28:02;27.90;;;13.80;;
22284;SDS011;11311;52.192;20.900;2022-11-11T07:30:49;23.17;;;13.82;;
22284;SDS011;11311;52.192;20.900;2022-11-11T07:33:37;26.65;;;13.73;;
22284;SDS011;11311;52.192;20.900;2022-11-11T07:36:24;24.15;;;14.02;;
22284;SDS011;11311;52.192;20.900;2022-11-11T07:39:12;22.20;;;14.00;;
22284;SDS011;11311;52.192;20.900;2022-11-11T07:42:01;26.88;;;14.60;;
22284;SDS011;11311;52.192;20.900;2022-11-11T07:44:48;24.30;;;14.02;;
22284;SDS011;11311;52.192;20.900;2022-11-11T07:47:37;23.33;;;12.00;;
22284;SDS011;11311;52.192;20.900;2022-11-11T07:50:25;23.08;;;11.13;;
22284;SDS011;11311;52.192;20.900;2022-11-11T07:53:12;23.67;;;11.73;;
22284;SDS011;11311;52.192;20.900;2022-11-11T07:56:00;23.85;;;12.90;;
22284;SDS011;11311;52.192;20.900;2022-11-11T07:58:49;23.45;;;12.00;;
22284;SDS011;11311;52.192;20.900;2022-11-11T08:01:37;24.13;;;11.88;;
22284;SDS011;11311;52.192;20.900;2022-11-11T08:04:25;22.80;;;12.10;;
22284;SDS011;11311;52.192;20.900;2022-11-11T08:07:13;24.50;;;11.85;;
22284;SDS011;11311;52.192;20.900;2022-11-11T08:10:07;16.38;;;11.18;;
22284;SDS011;11311;52.192;20.900;2022-11-11T08:12:55;18.63;;;11.05;;
22284;SDS011;11311;52.192;20.900;2022-11-11T08:16:04;24.88;;;11.43;;
22284;SDS011;11311;52.192;20.900;2022-11-11T08:18:51;22.10;;;11.13;;
22284;SDS011;11311;52.192;20.900;2022-11-11T08:21:38;23.60;;;11.68;;
22284;SDS011;11311;52.192;20.900;2022-11-11T08:24:25;22.05;;;11.60;;
22284;SDS011;11311;52.192;20.900;2022-11-11T08:27:33;23.10;;;10.82;;
22284;SDS011;11311;52.192;20.900;2022-11-11T08:30:20;20.65;;;11.35;;
22284;SDS011;11311;52.192;20.900;2022-11-11T08:33:09;20.33;;;11.30;;
22284;SDS011;11311;52.192;20.900;2022-11-11T08:36:16;20.42;;;11.05;;
22284;SDS011;11311;52.192;20.900;2022-11-11T08:39:06;23.00;;;10.85;;
22284;SDS011;11311;52.192;20.900;2022-11-11T08:41:53;30.65;;;11.38;;
22284;SDS011;11311;52.192;20.900;2022-11-11T08:44:41;20.55;;;10.95;;
22284;SDS011;11311;52.192;20.900;2022-11-11T08:47:28;26.67;;;11.50;;
22284;SDS011;11311;52.192;20.900;2022-11-11T08:50:17;26.98;;;9.95;;
22284;SDS011;11311;52.192;20.900;2022-11-11T08:53:05;24.48;;;11.32;;
22284;SDS011;11311;52.192;20.900;2022-11-11T08:55:53;23.35;;;11.50;;
22284;SDS011;11311;52.192;20.900;2022-11-11T08:58:41;22.67;;;10.35;;
22284;SDS011;11311;52.192;20.900;2022-11-11T09:01:28;21.83;;;10.02;;
22284;SDS011;11311;52.192;20.900;2022-11-11T09:04:16;22.05;;;11.57;;
22284;SDS011;11311;52.192;20.900;2022-11-11T09:07:25;22.83;;;10.30;;
22284;SDS011;11311;52.192;20.900;2022-11-11T09:10:12;23.02;;;10.18;;
22284;SDS011;11311;52.192;20.900;2022-11-11T09:13:00;17.65;;;10.15;;
22284;SDS011;11311;52.192;20.900;2022-11-11T09:15:47;20.50;;;10.65;;
22284;SDS011;11311;52.192;20.900;2022-11-11T09:18:34;18.27;;;9.52;;
22284;SDS011;11311;52.192;20.900;2022-11-11T09:21:22;20.13;;;10.23;;
22284;SDS011;11311;52.192;20.900;2022-11-11T09:24:11;20.38;;;9.13;;
22284;SDS011;11311;52.192;20.900;2022-11-11T09:26:58;18.55;;;10.15;;
22284;SDS011;11311;52.192;20.900;2022-11-11T09:29:45;22.80;;;11.45;;
22284;SDS011;11311;52.192;20.900;2022-11-11T09:32:33;22.75;;;10.60;;
22284;SDS011;11311;52.192;20.900;2022-11-11T09:35:21;20.13;;;10.57;;
22284;SDS011;11311;52.192;20.900;2022-11-11T09:38:08;20.83;;;9.95;;
22284;SDS011;11311;52.192;20.900;2022-11-11T09:40:59;19.88;;;9.23;;
22284;SDS011;11311;52.192;20.900;2022-11-11T09:43:52;23.70;;;10.43;;
22284;SDS011;11311;52.192;20.900;2022-11-11T09:46:42;20.30;;;9.15;;
22284;SDS011;11311;52.192;20.900;2022-11-11T09:49:49;16.70;;;9.20;;
22284;SDS011;11311;52.192;20.900;2022-11-11T09:52:41;23.80;;;9.43;;
22284;SDS011;11311;52.192;20.900;2022-11-11T09:55:32;16.70;;;9.73;;
22284;SDS011;11311;52.192;20.900;2022-11-11T09:58:24;18.75;;;8.75;;
22284;SDS011;11311;52.192;20.900;2022-11-11T10:01:15;20.30;;;10.07;;
22284;SDS011;11311;52.192;20.900;2022-11-11T10:04:10;18.98;;;10.80;;
22284;SDS011;11311;52.192;20.900;2022-11-11T10:07:03;22.00;;;9.73;;
22284;SDS011;11311;52.192;20.900;2022-11-11T10:12:41;17.15;;;9.60;;
22284;SDS011;11311;52.192;20.900;2022-11-11T10:15:34;21.65;;;9.90;;
22284;SDS011;11311;52.192;20.900;2022-11-11T10:18:30;25.75;;;11.00;;
22284;SDS011;11311;52.192;20.900;2022-11-11T10:21:28;15.63;;;9.15;;
22284;SDS011;11311;52.192;20.900;2022-11-11T10:24:40;20.58;;;9.60;;
22284;SDS011;11311;52.192;20.900;2022-11-11T10:27:35;22.92;;;9.88;;
22284;SDS011;11311;52.192;20.900;2022-11-11T10:30:23;22.08;;;10.30;;
22284;SDS011;11311;52.192;20.900;2022-11-11T10:33:18;20.70;;;10.57;;
22284;SDS011;11311;52.192;20.900;2022-11-11T10:36:12;20.00;;;10.13;;
22284;SDS011;11311;52.192;20.900;2022-11-11T10:39:03;23.98;;;9.85;;
22284;SDS011;11311;52.192;20.900;2022-11-11T10:41:51;21.52;;;9.88;;
22284;SDS011;11311;52.192;20.900;2022-11-11T10:44:40;23.25;;;10.95;;
22284;SDS011;11311;52.192;20.900;2022-11-11T10:47:34;17.02;;;9.93;;
22284;SDS011;11311;52.192;20.900;2022-11-11T10:50:30;16.88;;;9.80;;
22284;SDS011;11311;52.192;20.900;2022-11-11T10:53:21;24.40;;;9.70;;
22284;SDS011;11311;52.192;20.900;2022-11-11T10:56:16;23.02;;;10.65;;
22284;SDS011;11311;52.192;20.900;2022-11-11T10:59:09;26.35;;;12.10;;
22284;SDS011;11311;52.192;20.900;2022-11-11T11:02:00;27.23;;;10.70;;
22284;SDS011;11311;52.192;20.900;2022-11-11T11:04:52;20.13;;;9.77;;
22284;SDS011;11311;52.192;20.900;2022-11-11T11:10:31;14.70;;;9.85;;
22284;SDS011;11311;52.192;20.900;2022-11-11T11:13:23;19.05;;;10.90;;
22284;SDS011;11311;52.192;20.900;2022-11-11T11:16:15;15.85;;;10.18;;
22284;SDS011;11311;52.192;20.900;2022-11-11T11:19:13;18.85;;;10.10;;
22284;SDS011;11311;52.192;20.900;2022-11-11T11:22:02;23.25;;;10.68;;
22284;SDS011;11311;52.192;20.900;2022-11-11T11:24:50;23.48;;;10.50;;
22284;SDS011;11311;52.192;20.900;2022-11-11T11:27:45;20.05;;;11.05;;
22284;SDS011;11311;52.192;20.900;2022-11-11T11:30:32;20.73;;;10.20;;
22284;SDS011;11311;52.192;20.900;2022-11-11T11:33:19;19.00;;;10.32;;
22284;SDS011;11311;52.192;20.900;2022-11-11T11:36:12;26.33;;;10.70;;
22284;SDS011;11311;52.192;20.900;2022-11-11T11:39:02;23.17;;;11.65;;
22284;SDS011;11311;52.192;20.900;2022-11-11T11:41:59;24.40;;;11.13;;
22284;SDS011;11311;52.192;20.900;2022-11-11T11:45:13;18.58;;;9.75;;
22284;SDS011;11311;52.192;20.900;2022-11-11T11:48:15;17.17;;;9.63;;
22284;SDS011;11311;52.192;20.900;2022-11-11T11:51:32;21.60;;;11.13;;
22284;SDS011;11311;52.192;20.900;2022-11-11T11:54:24;19.58;;;10.73;;
22284;SDS011;11311;52.192;20.900;2022-11-11T11:57:25;18.75;;;9.88;;
22284;SDS011;11311;52.192;20.900;2022-11-11T12:00:21;21.33;;;11.48;;
22284;SDS011;11311;52.192;20.900;2022-11-11T12:03:25;21.35;;;10.35;;
22284;SDS011;11311;52.192;20.900;2022-11-11T12:06:36;21.52;;;10.20;;
22284;SDS011;11311;52.192;20.900;2022-11-11T12:09:31;22.10;;;10.52;;
22284;SDS011;11311;52.192;20.900;2022-11-11T12:12:27;25.50;;;10.40;;
22284;SDS011;11311;52.192;20.900;2022-11-11T12:15:27;19.98;;;9.82;;
22284;SDS011;11311;52.192;20.900;2022-11-11T12:18:29;14.52;;;9.55;;
22284;SDS011;11311;52.192;20.900;2022-11-11T12:21:23;19.52;;;11.25;;
22284;SDS011;11311;52.192;20.900;2022-11-11T12:24:16;21.63;;;11.10;;
22284;SDS011;11311;52.192;20.900;2022-11-11T12:27:15;25.38;;;10.55;;
22284;SDS011;11311;52.192;20.900;2022-11-11T12:30:09;18.42;;;9.27;;
22284;SDS011;11311;52.192;20.900;2022-11-11T12:33:04;15.95;;;9.35;;
22284;SDS011;11311;52.192;20.900;2022-11-11T12:36:05;17.42;;;9.85;;
22284;SDS011;11311;52.192;20.900;2022-11-11T12:38:56;17.92;;;8.88;;
22284;SDS011;11311;52.192;20.900;2022-11-11T12:41:51;21.27;;;8.43;;
22284;SDS011;11311;52.192;20.900;2022-11-11T12:44:48;15.75;;;7.60;;
22284;SDS011;11311;52.192;20.900;2022-11-11T12:47:45;15.07;;;6.78;;
22284;SDS011;11311;52.192;20.900;2022-11-11T12:50:40;16.30;;;7.68;;
22284;SDS011;11311;52.192;20.900;2022-11-11T12:53:33;13.45;;;7.35;;
22284;SDS011;11311;52.192;20.900;2022-11-11T12:56:25;15.85;;;6.85;;
22284;SDS011;11311;52.192;20.900;2022-11-11T12:59:19;15.68;;;7.75;;
22284;SDS011;11311;52.192;20.900;2022-11-11T13:02:19;20.02;;;8.38;;
22284;SDS011;11311;52.192;20.900;2022-11-11T13:05:20;18.48;;;7.95;;
22284;SDS011;11311;52.192;20.900;2022-11-11T13:08:12;14.50;;;8.13;;
22284;SDS011;11311;52.192;20.900;2022-11-11T13:14:01;18.92;;;9.10;;
22284;SDS011;11311;52.192;20.900;2022-11-11T13:16:54;20.35;;;8.23;;
22284;SDS011;11311;52.192;20.900;2022-11-11T13:19:44;19.85;;;8.52;;
22284;SDS011;11311;52.192;20.900;2022-11-11T13:22:34;17.50;;;8.98;;
22284;SDS011;11311;52.192;20.900;2022-11-11T13:25:22;18.15;;;9.13;;
22284;SDS011;11311;52.192;20.900;2022-11-11T13:28:13;14.50;;;8.85;;
22284;SDS011;11311;52.192;20.900;2022-11-11T13:31:05;16.67;;;9.10;;
22284;SDS011;11311;52.192;20.900;2022-11-11T13:33:57;20.33;;;8.23;;
22284;SDS011;11311;52.192;20.900;2022-11-11T13:36:50;15.95;;;8.20;;
22284;SDS011;11311;52.192;20.900;2022-11-11T13:39:44;19.27;;;8.77;;
22284;SDS011;11311;52.192;20.900;2022-11-11T13:42:39;21.20;;;7.70;;
22284;SDS011;11311;52.192;20.900;2022-11-11T13:45:29;11.20;;;8.03;;
22284;SDS011;11311;52.192;20.900;2022-11-11T13:48:21;15.75;;;8.18;;
22284;SDS011;11311;52.192;20.900;2022-11-11T13:51:15;19.38;;;8.65;;
22284;SDS011;11311;52.192;20.900;2022-11-11T13:54:18;19.02;;;8.98;;
22284;SDS011;11311;52.192;20.900;2022-11-11T13:57:16;24.90;;;10.60;;
22284;SDS011;11311;52.192;20.900;2022-11-11T14:00:06;13.80;;;7.55;;
22284;SDS011;11311;52.192;20.900;2022-11-11T14:03:30;13.77;;;8.02;;
22284;SDS011;11311;52.192;20.900;2022-11-11T14:06:36;27.02;;;9.25;;
22284;SDS011;11311;52.192;20.900;2022-11-11T14:09:51;18.52;;;8.25;;
22284;SDS011;11311;52.192;20.900;2022-11-11T14:12:44;18.23;;;8.30;;
22284;SDS011;11311;52.192;20.900;2022-11-11T14:15:36;15.60;;;8.75;;
22284;SDS011;11311;52.192;20.900;2022-11-11T14:18:34;18.15;;;8.48;;
22284;SDS011;11311;52.192;20.900;2022-11-11T14:21:42;16.30;;;9.68;;
22284;SDS011;11311;52.192;20.900;2022-11-11T14:24:35;22.58;;;10.80;;
22284;SDS011;11311;52.192;20.900;2022-11-11T14:27:24;18.77;;;10.00;;
22284;SDS011;11311;52.192;20.900;2022-11-11T14:30:32;18.98;;;10.77;;
22284;SDS011;11311;52.192;20.900;2022-11-11T14:33:26;19.55;;;10.27;;
22284;SDS011;11311;52.192;20.900;2022-11-11T14:36:21;15.10;;;10.77;;
22284;SDS011;11311;52.192;20.900;2022-11-11T14:39:15;18.80;;;10.95;;
22284;SDS011;11311;52.192;20.900;2022-11-11T14:48:54;18.60;;;11.02;;
22284;SDS011;11311;52.192;20.900;2022-11-11T14:51:50;17.50;;;11.82;;
22284;SDS011;11311;52.192;20.900;2022-11-11T14:54:42;17.05;;;11.23;;
22284;SDS011;11311;52.192;20.900;2022-11-11T14:57:36;19.33;;;12.88;;
22284;SDS011;11311;52.192;20.900;2022-11-11T15:00:24;20.48;;;12.55;;
22284;SDS011;11311;52.192;20.900;2022-11-11T15:03:16;19.30;;;12.10;;
22284;SDS011;11311;52.192;20.900;2022-11-11T15:06:11;18.63;;;12.63;;
22284;SDS011;11311;52.192;20.900;2022-11-11T15:09:02;20.25;;;13.20;;
22284;SDS011;11311;52.192;20.900;2022-11-11T15:12:01;18.42;;;12.43;;
22284;SDS011;11311;52.192;20.900;2022-11-11T15:14:56;22.15;;;13.55;;
22284;SDS011;11311;52.192;20.900;2022-11-11T15:17:51;22.13;;;13.05;;
22284;SDS011;11311;52.192;20.900;2022-11-11T15:20:52;24.13;;;12.82;;
22284;SDS011;11311;52.192;20.900;2022-11-11T15:23:46;16.88;;;12.30;;
22284;SDS011;11311;52.192;20.900;2022-11-11T15:26:38;26.05;;;11.90;;
22284;SDS011;11311;52.192;20.900;2022-11-11T15:29:37;21.73;;;13.73;;
22284;SDS011;11311;52.192;20.900;2022-11-11T15:32:45;21.42;;;13.02;;
22284;SDS011;11311;52.192;20.900;2022-11-11T15:35:40;20.27;;;12.63;;
22284;SDS011;11311;52.192;20.900;2022-11-11T15:38:30;23.95;;;14.10;;
22284;SDS011;11311;52.192;20.900;2022-11-11T15:41:19;22.13;;;13.15;;
22284;SDS011;11311;52.192;20.900;2022-11-11T15:44:09;18.40;;;12.35;;
22284;SDS011;11311;52.192;20.900;2022-11-11T15:47:01;29.90;;;14.60;;
22284;SDS011;11311;52.192;20.900;2022-11-11T15:49:49;23.35;;;14.23;;
22284;SDS011;11311;52.192;20.900;2022-11-11T15:52:37;32.13;;;13.07;;
22284;SDS011;11311;52.192;20.900;2022-11-11T15:55:26;24.40;;;13.80;;
22284;SDS011;11311;52.192;20.900;2022-11-11T15:58:16;29.33;;;14.20;;
22284;SDS011;11311;52.192;20.900;2022-11-11T16:01:05;23.40;;;13.53;;
22284;SDS011;11311;52.192;20.900;2022-11-11T16:03:53;18.90;;;12.40;;
22284;SDS011;11311;52.192;20.900;2022-11-11T16:06:41;20.65;;;13.27;;
22284;SDS011;11311;52.192;20.900;2022-11-11T16:09:29;23.45;;;13.10;;
22284;SDS011;11311;52.192;20.900;2022-11-11T16:12:20;24.60;;;13.65;;
22284;SDS011;11311;52.192;20.900;2022-11-11T16:15:16;25.67;;;13.35;;
22284;SDS011;11311;52.192;20.900;2022-11-11T16:18:06;20.58;;;12.35;;
22284;SDS011;11311;52.192;20.900;2022-11-11T16:21:00;21.80;;;12.93;;
22284;SDS011;11311;52.192;20.900;2022-11-11T16:23:51;25.08;;;13.10;;
22284;SDS011;11311;52.192;20.900;2022-11-11T16:26:39;22.65;;;13.70;;
22284;SDS011;11311;52.192;20.900;2022-11-11T16:29:28;21.00;;;13.10;;
22284;SDS011;11311;52.192;20.900;2022-11-11T16:35:22;28.73;;;14.93;;
22284;SDS011;11311;52.192;20.900;2022-11-11T16:38:11;31.70;;;16.10;;
22284;SDS011;11311;52.192;20.900;2022-11-11T16:41:25;20.38;;;14.20;;
22284;SDS011;11311;52.192;20.900;2022-11-11T16:44:35;24.13;;;13.55;;
22284;SDS011;11311;52.192;20.900;2022-11-11T16:47:41;32.00;;;15.10;;
22284;SDS011;11311;52.192;20.900;2022-11-11T16:50:33;29.52;;;15.60;;
22284;SDS011;11311;52.192;20.900;2022-11-11T16:53:40;29.73;;;14.95;;
22284;SDS011;11311;52.192;20.900;2022-11-11T16:56:30;25.67;;;15.30;;